Time;durP1;ratioP1;P1;durP2;ratioP2;P2;SDS_P1;SDS_P2;PMS_P1;PMS_P2;Temp;Humidity;BMP_temperature;BMP_pressure;BME280_temperature;BME280_humidity;BME280_pressure;Samples;Min_cycle;Max_cycle;Signal;HPM_P1;HPM_P2
2023/04/09 00:03:34;;;;;;;22.05;11.85;;;;;;;6.13;100.00;95019.16;10531214;28;20158;-69
2023/04/09 00:08:35;;;;;;;20.25;11.98;;;;;;;5.95;100.00;95023.59;10543240;27;20027;-70
2023/04/09 00:13:35;;;;;;;22.58;11.68;;;;;;;5.75;100.00;95023.16;10531160;27;20080;-71
2023/04/09 00:18:36;;;;;;;17.70;10.68;;;;;;;5.58;100.00;95031.09;10554073;28;20048;-69
2023/04/09 00:23:36;;;;;;;19.00;11.13;;;;;;;5.56;100.00;95025.19;10554123;28;20374;-71
2023/04/09 00:28:37;;;;;;;21.88;12.25;;;;;;;5.72;100.00;95028.97;10553846;28;20327;-70
2023/04/09 00:33:37;;;;;;;19.98;11.30;;;;;;;5.71;100.00;95033.50;10553927;28;20428;-71
2023/04/09 00:38:38;;;;;;;19.75;10.57;;;;;;;5.76;100.00;95027.47;10548220;28;20493;-69
2023/04/09 00:43:38;;;;;;;21.67;11.43;;;;;;;5.70;100.00;95031.09;10552780;28;20082;-69
2023/04/09 00:48:39;;;;;;;20.75;10.95;;;;;;;5.61;100.00;95030.63;10534915;28;20028;-70
2023/04/09 00:53:40;;;;;;;19.67;10.75;;;;;;;5.62;100.00;95033.06;10534916;28;20501;-70
2023/04/09 00:58:41;;;;;;;20.45;11.30;;;;;;;5.58;100.00;95034.59;10552612;28;20078;-70
2023/04/09 01:03:41;;;;;;;17.70;10.38;;;;;;;5.63;100.00;95041.88;10552380;28;20424;-71
2023/04/09 01:08:52;;;;;;;18.70;11.02;;;;;;;5.71;100.00;95035.38;10552220;28;20378;-69
2023/04/09 01:14:04;;;;;;;16.80;10.65;;;;;;;5.86;100.00;95043.69;10552247;28;20032;-70
2023/04/09 01:19:34;;;;;;;22.13;11.02;;;;;;;5.84;100.00;95042.31;10552044;28;20061;-71
2023/04/09 01:24:49;;;;;;;20.52;10.93;;;;;;;5.70;100.00;95037.22;10551136;28;20053;-69
2023/04/09 01:29:51;;;;;;;21.25;12.85;;;;;;;5.67;100.00;95044.88;10551945;28;20084;-69
2023/04/09 01:34:53;;;;;;;21.58;11.82;;;;;;;5.55;100.00;95036.91;10551548;28;20024;-71
2023/04/09 01:39:53;;;;;;;21.90;11.63;;;;;;;5.38;100.00;95042.94;10551291;28;20027;-69
2023/04/09 01:44:54;;;;;;;25.90;11.65;;;;;;;5.28;100.00;95046.19;10551306;28;20034;-70
2023/04/09 01:49:55;;;;;;;17.58;10.05;;;;;;;5.39;100.00;95049.88;10532643;28;20020;-68
2023/04/09 01:54:55;;;;;;;22.73;12.13;;;;;;;5.33;100.00;95052.66;10550687;28;20106;-69
2023/04/09 01:59:56;;;;;;;21.55;12.15;;;;;;;5.22;100.00;95047.13;10550862;28;20027;-69
2023/04/09 02:04:57;;;;;;;24.85;12.85;;;;;;;5.26;100.00;95050.09;10532573;28;20058;-69
2023/04/09 02:10:00;;;;;;;23.63;12.38;;;;;;;5.12;100.00;95049.53;10550699;28;20346;-69
2023/04/09 02:15:01;;;;;;;19.63;11.13;;;;;;;5.18;100.00;95045.13;10550914;28;20042;-69
2023/04/09 02:20:02;;;;;;;21.48;11.68;;;;;;;5.15;100.00;95051.75;10549924;28;20105;-70
2023/04/09 02:25:03;;;;;;;24.42;13.13;;;;;;;5.15;100.00;95049.09;10549492;28;20072;-70
2023/04/09 02:30:04;;;;;;;27.08;14.00;;;;;;;5.11;100.00;95046.06;10549109;28;20118;-70
2023/04/09 02:35:05;;;;;;;31.75;13.50;;;;;;;5.04;100.00;95050.69;10549978;28;20026;-69
2023/04/09 02:40:06;;;;;;;26.20;13.77;;;;;;;5.09;100.00;95050.00;10556449;28;20490;-68
2023/04/09 02:45:07;;;;;;;27.40;13.75;;;;;;;5.21;100.00;95044.69;10556951;28;20123;-70
2023/04/09 02:50:07;;;;;;;24.88;14.35;;;;;;;5.26;100.00;95050.94;10554563;28;20114;-69
2023/04/09 02:55:08;;;;;;;23.48;12.90;;;;;;;5.31;100.00;95034.25;10547619;28;20036;-69
2023/04/09 03:00:09;;;;;;;27.63;13.95;;;;;;;5.35;100.00;95035.41;10551790;28;20410;-69
2023/04/09 03:05:10;;;;;;;28.58;14.98;;;;;;;5.40;100.00;95038.19;10544659;28;20264;-69
2023/04/09 03:10:10;;;;;;;28.98;15.07;;;;;;;5.31;100.00;95031.59;10553858;28;20030;-69
2023/04/09 03:15:11;;;;;;;29.38;15.20;;;;;;;5.08;100.00;95035.88;10538494;28;20205;-69
2023/04/09 03:20:11;;;;;;;30.55;17.02;;;;;;;5.01;100.00;95035.19;10554943;28;20052;-69
2023/04/09 03:25:12;;;;;;;32.55;17.75;;;;;;;5.06;100.00;95035.28;10552155;28;20026;-69
2023/04/09 03:30:12;;;;;;;33.13;17.13;;;;;;;5.06;100.00;95035.28;10554266;28;20023;-69
2023/04/09 03:35:13;;;;;;;33.35;17.08;;;;;;;5.05;100.00;95036.34;10544095;28;20062;-69
2023/04/09 03:40:13;;;;;;;31.50;16.35;;;;;;;5.16;100.00;95042.69;10554417;28;20038;-70
2023/04/09 03:45:14;;;;;;;32.00;16.88;;;;;;;5.20;100.00;95035.06;10554600;28;20114;-69
2023/04/09 03:50:14;;;;;;;31.23;16.88;;;;;;;5.25;100.00;95041.31;10536290;28;20436;-70
2023/04/09 03:55:15;;;;;;;26.25;15.40;;;;;;;5.30;100.00;95041.44;10555818;28;20099;-69
2023/04/09 04:00:16;;;;;;;30.38;15.60;;;;;;;5.24;100.00;95037.03;10555521;28;20019;-69
2023/04/09 04:05:16;;;;;;;31.48;16.70;;;;;;;5.27;100.00;95038.41;10555022;28;20023;-69
2023/04/09 04:10:17;;;;;;;25.63;14.50;;;;;;;5.41;100.00;95044.31;10554725;28;20102;-70
2023/04/09 04:15:18;;;;;;;32.10;17.42;;;;;;;5.48;100.00;95034.34;10554634;28;20258;-70
2023/04/09 04:20:19;;;;;;;29.23;16.60;;;;;;;5.63;100.00;95036.53;10535289;28;20575;-70
2023/04/09 04:25:20;;;;;;;32.28;16.95;;;;;;;5.69;100.00;95037.44;10554555;28;20143;-70
2023/04/09 04:30:20;;;;;;;33.80;15.68;;;;;;;5.80;100.00;95034.78;10553982;28;20027;-71
2023/04/09 04:35:21;;;;;;;30.20;14.88;;;;;;;5.80;100.00;95032.13;10552309;28;20043;-70
2023/04/09 04:40:22;;;;;;;33.97;15.88;;;;;;;5.84;100.00;95029.75;10553167;28;20030;-70
2023/04/09 04:45:22;;;;;;;33.75;16.95;;;;;;;5.87;100.00;95029.28;10548123;28;20019;-70
2023/04/09 04:50:22;;;;;;;36.77;18.00;;;;;;;5.97;100.00;95036.69;10553460;28;20019;-70
2023/04/09 04:55:23;;;;;;;33.13;17.13;;;;;;;6.03;100.00;95038.47;10552628;28;20755;-70
2023/04/09 05:00:24;;;;;;;31.52;16.58;;;;;;;6.10;100.00;95035.66;10549763;28;20370;-69
2023/04/09 05:05:24;;;;;;;31.42;15.68;;;;;;;6.35;100.00;95038.00;10552852;28;20470;-69
2023/04/09 05:10:25;;;;;;;31.63;16.57;;;;;;;6.52;100.00;95037.19;10551314;28;20061;-70
2023/04/09 05:15:25;;;;;;;33.67;17.02;;;;;;;6.86;100.00;95040.72;10532259;28;20027;-70
2023/04/09 05:20:26;;;;;;;30.45;15.15;;;;;;;7.16;100.00;95039.63;10510105;28;20431;-70
2023/04/09 05:25:27;;;;;;;32.20;16.30;;;;;;;7.31;100.00;95034.50;10550697;28;20024;-69
2023/04/09 05:30:27;;;;;;;30.67;15.38;;;;;;;7.56;100.00;95030.56;10529058;28;20059;-70
2023/04/09 05:35:28;;;;;;;33.40;15.50;;;;;;;7.80;100.00;95033.00;10547249;28;20030;-70
2023/04/09 05:40:28;;;;;;;30.35;14.88;;;;;;;7.73;100.00;95035.88;10547811;28;20042;-70
2023/04/09 05:45:28;;;;;;;30.35;15.25;;;;;;;7.60;100.00;95038.91;10534425;28;20076;-69
2023/04/09 05:50:29;;;;;;;31.80;15.73;;;;;;;7.56;100.00;95032.44;10531101;28;20027;-70
2023/04/09 05:55:32;;;;;;;30.13;14.65;;;;;;;7.66;100.00;95041.41;10531001;28;20039;-69
2023/04/09 06:00:33;;;;;;;25.63;12.90;;;;;;;7.70;100.00;95037.19;10535312;28;20034;-73
2023/04/09 06:05:33;;;;;;;32.05;13.75;;;;;;;7.74;100.00;95036.69;10528606;28;20449;-70
2023/04/09 06:10:34;;;;;;;26.95;12.73;;;;;;;7.90;100.00;95032.31;10528227;28;20099;-76
2023/04/09 06:15:37;;;;;;;25.63;14.05;;;;;;;8.02;100.00;95023.13;10523663;28;20032;-76
2023/04/09 06:20:37;;;;;;;30.95;13.70;;;;;;;8.37;100.00;95032.63;10527859;28;20040;-75
2023/04/09 06:25:39;;;;;;;22.08;11.48;;;;;;;8.53;100.00;95025.56;10509299;28;20180;-71
2023/04/09 06:30:40;;;;;;;25.52;12.70;;;;;;;8.45;100.00;95019.88;10520168;28;20509;-71
2023/04/09 06:35:41;;;;;;;26.63;11.18;;;;;;;8.68;100.00;95018.75;10536918;28;20044;-70
2023/04/09 06:40:41;;;;;;;20.13;11.45;;;;;;;9.14;100.00;95027.19;10533380;28;20039;-71
2023/04/09 06:45:42;;;;;;;23.27;10.55;;;;;;;9.26;100.00;95024.31;10540141;28;20043;-69
2023/04/09 06:50:44;;;;;;;18.55;9.38;;;;;;;9.81;100.00;95022.25;10534089;28;20028;-68
2023/04/09 06:55:45;;;;;;;15.57;8.23;;;;;;;10.23;100.00;95009.78;10527314;28;20168;-69
2023/04/09 07:00:45;;;;;;;14.20;8.05;;;;;;;8.87;100.00;95028.06;10533026;28;20028;-69
2023/04/09 07:05:46;;;;;;;19.48;10.50;;;;;;;8.80;100.00;95029.31;10519906;28;20036;-69
2023/04/09 07:10:46;;;;;;;19.10;9.75;;;;;;;8.93;100.00;95028.91;10531482;28;20424;-68
2023/04/09 07:15:47;;;;;;;17.60;10.35;;;;;;;9.11;100.00;95037.59;10529248;28;20063;-70
2023/04/09 07:20:47;;;;;;;15.70;9.65;;;;;;;8.97;100.00;95040.72;10523115;28;20031;-70
2023/04/09 07:25:48;;;;;;;14.48;8.77;;;;;;;8.62;100.00;95036.63;10539979;28;20410;-70
2023/04/09 07:30:48;;;;;;;15.57;9.33;;;;;;;8.70;100.00;95041.53;10540004;28;20058;-75
2023/04/09 07:35:49;;;;;;;18.87;9.80;;;;;;;8.98;100.00;95034.28;10529202;28;20780;-71
2023/04/09 07:40:49;;;;;;;17.55;8.75;;;;;;;9.23;100.00;95041.72;10517810;28;20292;-70
2023/04/09 07:45:50;;;;;;;14.65;8.82;;;;;;;9.60;100.00;95050.84;10540115;28;20073;-71
2023/04/09 07:50:51;;;;;;;15.60;8.57;;;;;;;9.50;100.00;95048.06;10538557;28;20731;-69
2023/04/09 07:55:52;;;;;;;20.73;9.18;;;;;;;9.67;100.00;95047.91;10537812;28;20031;-71
2023/04/09 08:00:52;;;;;;;15.07;8.85;;;;;;;9.43;100.00;95058.22;10528884;28;20038;-71
2023/04/09 08:05:53;;;;;;;15.73;8.43;;;;;;;9.09;100.00;95075.41;10530168;28;20435;-76
2023/04/09 08:10:53;;;;;;;14.02;8.20;;;;;;;8.77;100.00;95073.50;10530343;28;20073;-73
2023/04/09 08:15:54;;;;;;;16.13;8.43;;;;;;;8.50;100.00;95078.84;10537796;28;20034;-70
2023/04/09 08:20:55;;;;;;;23.23;11.20;;;;;;;8.38;100.00;95084.31;10527984;28;20110;-70
2023/04/09 08:25:56;;;;;;;19.65;10.40;;;;;;;8.28;100.00;95081.53;10535093;28;20089;-67
2023/04/09 08:30:57;;;;;;;19.35;9.68;;;;;;;7.96;100.00;95083.00;10524199;28;20020;-67
2023/04/09 08:35:57;;;;;;;20.33;11.18;;;;;;;8.32;100.00;95080.75;10531224;28;20141;-68
2023/04/09 08:40:58;;;;;;;21.67;10.68;;;;;;;8.15;100.00;95077.31;10530675;28;20031;-68
2023/04/09 08:46:01;;;;;;;23.98;12.32;;;;;;;8.54;100.00;95074.63;10535683;28;20030;-69
2023/04/09 08:51:02;;;;;;;23.52;12.18;;;;;;;8.84;100.00;95067.94;10539664;28;20038;-70
2023/04/09 08:56:03;;;;;;;22.73;10.48;;;;;;;8.57;100.00;95065.25;10535788;28;20510;-70
2023/04/09 09:01:03;;;;;;;24.75;11.27;;;;;;;8.38;100.00;95073.59;10537145;28;20066;-68
2023/04/09 09:06:20;;;;;;;15.90;8.80;;;;;;;8.39;100.00;95064.50;10525727;28;20038;-70
2023/04/09 09:11:26;;;;;;;21.13;10.43;;;;;;;8.78;100.00;95056.38;10532228;28;20024;-70
2023/04/09 09:16:26;;;;;;;15.50;8.55;;;;;;;9.12;100.00;95044.59;10533423;28;20046;-69
2023/04/09 09:21:28;;;;;;;19.08;10.68;;;;;;;9.55;100.00;95040.88;10509896;28;20058;-70
2023/04/09 09:26:29;;;;;;;21.40;10.70;;;;;;;9.65;100.00;95034.75;10525417;28;20096;-70
2023/04/09 09:31:30;;;;;;;18.23;9.80;;;;;;;9.69;100.00;95035.84;10535702;28;20092;-70
2023/04/09 09:36:34;;;;;;;14.13;8.48;;;;;;;10.08;100.00;95018.59;10530746;28;20760;-70
2023/04/09 09:41:35;;;;;;;13.07;7.70;;;;;;;9.73;100.00;95028.09;10536390;28;20054;-68
2023/04/09 09:46:39;;;;;;;13.70;7.82;;;;;;;11.89;100.00;95006.84;10542224;28;20028;-68
2023/04/09 09:51:40;;;;;;;11.55;7.07;;;;;;;13.26;91.16;95002.81;10539326;28;20027;-69
2023/04/09 09:56:42;;;;;;;9.15;5.38;;;;;;;14.42;74.97;95000.25;10536610;28;20486;-70
2023/04/09 10:01:44;;;;;;;9.40;6.50;;;;;;;15.35;70.71;94986.16;10543015;28;20027;-70
2023/04/09 10:06:46;;;;;;;10.02;6.28;;;;;;;16.75;57.82;94984.25;10526657;28;20024;-70
2023/04/09 10:11:47;;;;;;;10.05;6.55;;;;;;;17.20;53.09;94978.88;10525295;28;20028;-70
2023/04/09 10:16:48;;;;;;;7.90;5.43;;;;;;;18.62;47.83;94963.63;10543824;28;20442;-71
2023/04/09 10:22:03;;;;;;;9.88;6.57;;;;;;;16.64;53.71;94970.13;10544060;28;20043;-69
2023/04/09 10:27:11;;;;;;;12.45;6.25;;;;;;;18.05;49.14;94963.69;10545276;28;20056;-69
2023/04/09 10:32:16;;;;;;;10.13;6.22;;;;;;;14.77;56.85;94971.13;10527130;28;20103;-70
2023/04/09 10:37:24;;;;;;;14.75;7.75;;;;;;;13.92;73.21;94964.66;10521327;28;20023;-70
2023/04/09 10:42:40;;;;;;;;;;;;;;;13.79;73.37;94955.38;10545621;28;20027;-70
2023/04/09 10:47:42;;;;;;;14.20;8.43;;;;;;;13.75;72.20;94952.41;10534803;28;19911;-71
2023/04/09 10:52:43;;;;;;;12.93;6.90;;;;;;;13.14;74.94;94953.81;10535051;28;20095;-69
2023/04/09 10:57:44;;;;;;;12.88;6.95;;;;;;;12.55;79.69;94948.34;10549985;28;20083;-69
2023/04/09 11:03:03;;;;;;;12.65;6.85;;;;;;;12.31;83.44;94938.25;10511284;28;20058;-68
2023/04/09 11:08:08;;;;;;;15.95;8.13;;;;;;;12.38;95.61;94935.25;10511290;28;20032;-69
2023/04/09 11:13:14;;;;;;;13.27;7.57;;;;;;;12.32;97.92;94928.25;10515319;28;20084;-69
2023/04/09 11:18:21;;;;;;;9.00;5.43;;;;;;;11.72;87.16;94930.97;10532344;28;20046;-70
2023/04/09 11:23:22;;;;;;;10.87;5.80;;;;;;;11.39;100.00;94923.28;10519220;28;20027;-68
2023/04/09 11:28:23;;;;;;;16.80;8.43;;;;;;;11.49;100.00;94924.31;10525225;28;20080;-69
2023/04/09 11:33:32;;;;;;;17.05;7.50;;;;;;;11.39;100.00;94915.19;10520663;28;20024;-69
2023/04/09 11:38:32;;;;;;;10.20;6.68;;;;;;;11.40;86.74;94911.44;10531587;28;20043;-69
2023/04/09 11:43:35;;;;;;;10.98;6.43;;;;;;;11.74;88.78;94912.66;10531112;28;20023;-68
2023/04/09 11:48:36;;;;;;;7.43;4.75;;;;;;;11.82;72.02;94906.69;10541743;28;20073;-67
2023/04/09 11:53:36;;;;;;;10.70;6.00;;;;;;;11.67;73.63;94906.78;10540120;28;20020;-69
2023/04/09 11:58:37;;;;;;;13.07;6.38;;;;;;;11.79;75.68;94904.53;10543863;28;20783;-69
2023/04/09 12:03:37;;;;;;;8.52;5.93;;;;;;;11.70;72.04;94896.25;10518286;28;20028;-70
2023/04/09 12:08:38;;;;;;;9.40;6.05;;;;;;;11.57;69.81;94896.84;10545887;28;20058;-68
2023/04/09 12:13:44;;;;;;;9.60;5.90;;;;;;;11.32;67.19;94892.38;10550669;28;20070;-68
2023/04/09 12:18:46;;;;;;;8.38;5.18;;;;;;;11.83;65.67;94884.06;10532090;28;20046;-68
2023/04/09 12:23:46;;;;;;;10.90;5.75;;;;;;;11.95;66.77;94881.06;10543382;27;20032;-73
2023/04/09 12:28:47;;;;;;;8.38;4.55;;;;;;;12.03;65.60;94883.19;10561427;27;20020;-72
2023/04/09 12:33:48;;;;;;;6.95;5.20;;;;;;;12.26;66.34;94884.38;10554763;27;20061;-71
2023/04/09 12:38:48;;;;;;;5.82;4.47;;;;;;;12.38;63.67;94877.84;10526983;28;20031;-73
2023/04/09 12:43:49;;;;;;;7.43;4.32;;;;;;;12.11;67.00;94873.69;10565456;27;20015;-69
2023/04/09 12:48:50;;;;;;;10.07;4.90;;;;;;;11.84;68.26;94874.91;10550174;27;20020;-71
2023/04/09 12:53:50;;;;;;;8.35;4.93;;;;;;;11.80;70.41;94863.91;10535127;27;20028;-71
2023/04/09 12:58:51;;;;;;;7.45;4.88;;;;;;;11.84;73.34;94866.03;10549012;27;20019;-71
2023/04/09 13:03:51;;;;;;;9.05;5.15;;;;;;;12.01;72.27;94866.47;10542176;27;20343;-71
2023/04/09 13:08:51;;;;;;;8.57;5.33;;;;;;;12.13;73.40;94868.84;10550207;27;20051;-70
2023/04/09 13:13:52;;;;;;;8.50;5.35;;;;;;;12.35;67.88;94854.13;10547902;27;20947;-72
2023/04/09 13:18:52;;;;;;;5.83;3.77;;;;;;;12.55;63.12;94861.28;10549763;27;20040;-72
2023/04/09 13:23:56;;;;;;;5.67;3.87;;;;;;;12.01;65.92;94842.25;10542544;27;20274;-73
2023/04/09 13:28:57;;;;;;;6.47;4.68;;;;;;;11.60;70.30;94854.00;10541503;27;20276;-73
2023/04/09 13:33:58;;;;;;;9.65;5.53;;;;;;;11.42;72.76;94858.13;10554042;27;20361;-73
2023/04/09 13:39:03;;;;;;;6.57;4.47;;;;;;;11.56;72.92;94847.56;10547394;27;20518;-74
2023/04/09 13:44:03;;;;;;;10.23;5.95;;;;;;;11.69;72.97;94851.53;10546764;27;20028;-73
2023/04/09 13:49:04;;;;;;;8.75;5.00;;;;;;;11.53;76.37;94845.44;10553946;27;20034;-77
2023/04/09 13:54:06;;;;;;;9.18;5.75;;;;;;;11.63;77.14;94852.66;10543781;27;20553;-83
2023/04/09 13:59:07;;;;;;;9.30;5.32;;;;;;;11.63;80.24;94852.66;10527288;27;20565;-74
2023/04/09 14:04:09;;;;;;;10.13;6.07;;;;;;;11.51;81.77;94842.22;10548385;27;20027;-75
2023/04/09 14:09:11;;;;;;;10.38;5.75;;;;;;;11.42;81.48;94855.44;10555987;27;20453;-77
2023/04/09 14:14:14;;;;;;;11.13;5.50;;;;;;;11.45;78.64;94841.44;10550557;27;20042;-74
2023/04/09 14:19:14;;;;;;;13.73;6.88;;;;;;;11.47;80.74;94838.47;10541063;27;22069;-76
2023/04/09 14:24:15;;;;;;;7.55;4.72;;;;;;;10.87;85.94;94841.06;10544245;28;20048;-73
2023/04/09 14:29:16;;;;;;;13.32;6.50;;;;;;;10.73;90.55;94849.72;10544294;27;20016;-75
2023/04/09 14:34:16;;;;;;;17.50;6.97;;;;;;;10.77;91.22;94841.91;10532256;28;20028;-73
2023/04/09 14:39:17;;;;;;;11.68;5.78;;;;;;;10.95;95.34;94843.22;10545049;28;20034;-76
2023/04/09 14:44:17;;;;;;;16.63;6.85;;;;;;;10.99;96.63;94844.28;10544292;28;20051;-76
2023/04/09 14:49:17;;;;;;;12.00;6.32;;;;;;;10.77;99.01;94840.03;10543471;28;20072;-74
2023/04/09 14:54:18;;;;;;;11.37;6.20;;;;;;;11.01;99.77;94835.94;10530438;28;20048;-71
2023/04/09 14:59:18;;;;;;;14.00;7.23;;;;;;;11.13;98.98;94838.34;10546068;28;20024;-71
2023/04/09 15:04:19;;;;;;;10.05;6.30;;;;;;;11.31;89.08;94835.03;10546244;28;20287;-72
2023/04/09 15:09:19;;;;;;;13.85;7.18;;;;;;;11.34;88.85;94833.69;10540766;28;20023;-70
2023/04/09 15:14:20;;;;;;;9.48;6.03;;;;;;;11.33;81.99;94829.38;10530480;28;20024;-71
2023/04/09 15:19:20;;;;;;;11.30;6.57;;;;;;;11.17;82.35;94831.31;10549038;28;20125;-70
2023/04/09 15:24:21;;;;;;;11.75;5.78;;;;;;;11.08;80.47;94821.13;10538947;28;20174;-78
2023/04/09 15:29:21;;;;;;;11.18;6.85;;;;;;;10.98;79.17;94831.09;10553686;28;20023;-75
2023/04/09 15:34:22;;;;;;;11.77;6.55;;;;;;;11.05;81.69;94820.84;10550964;27;20051;-78
2023/04/09 15:39:28;;;;;;;12.23;6.28;;;;;;;11.19;75.28;94815.72;10554707;28;20027;-78
2023/04/09 15:44:29;;;;;;;11.32;6.45;;;;;;;11.10;70.42;94826.22;10555967;27;20427;-82
2023/04/09 15:49:29;;;;;;;9.13;5.72;;;;;;;11.07;69.20;94824.09;10550674;27;20027;-80
2023/04/09 15:54:32;;;;;;;14.23;8.95;;;;;;;11.11;100.00;94830.53;10550171;27;20035;-76
2023/04/09 15:59:32;;;;;;;15.30;8.02;;;;;;;11.05;100.00;94826.25;10532811;27;20020;-75
2023/04/09 16:04:33;;;;;;;17.10;8.77;;;;;;;11.15;100.00;94828.09;10543998;27;20415;-75
2023/04/09 16:09:33;;;;;;;14.80;9.00;;;;;;;11.09;100.00;94825.44;10545556;27;20028;-75
2023/04/09 16:14:34;;;;;;;15.27;10.37;;;;;;;11.14;100.00;94824.59;10543856;27;20738;-78
2023/04/09 16:19:34;;;;;;;14.25;9.50;;;;;;;11.11;100.00;94825.16;10557901;27;20293;-79
2023/04/09 16:24:38;;;;;;;14.33;9.40;;;;;;;11.13;100.00;94824.88;10553943;27;20040;-71
2023/04/09 16:29:39;;;;;;;15.60;9.82;;;;;;;11.07;100.00;94830.28;10551931;27;20344;-71
2023/04/09 16:34:40;;;;;;;13.40;8.75;;;;;;;11.00;100.00;94818.22;10549627;27;20030;-71
2023/04/09 16:39:40;;;;;;;14.10;8.65;;;;;;;10.95;100.00;94829.75;10554517;27;20035;-70
2023/04/09 16:44:41;;;;;;;14.63;8.73;;;;;;;10.88;100.00;94826.56;10547934;27;20481;-70
2023/04/09 16:49:41;;;;;;;16.73;9.98;;;;;;;10.84;100.00;94830.88;10549126;27;20091;-70
2023/04/09 16:54:42;;;;;;;17.30;9.00;;;;;;;10.83;100.00;94829.25;10541834;27;20791;-69
2023/04/09 16:59:43;;;;;;;22.63;12.15;;;;;;;10.65;100.00;94838.72;10543904;27;20019;-70
2023/04/09 17:04:44;;;;;;;21.83;10.30;;;;;;;10.69;100.00;94837.88;10549782;27;20391;-70
2023/04/09 17:09:45;;;;;;;22.70;10.10;;;;;;;10.58;100.00;94836.28;10553264;27;20019;-69
2023/04/09 17:14:45;;;;;;;18.45;9.63;;;;;;;10.56;100.00;94843.81;10533442;27;20043;-70
2023/04/09 17:19:46;;;;;;;27.47;12.57;;;;;;;10.47;100.00;94856.19;10548663;27;20412;-70
2023/04/09 17:24:46;;;;;;;21.52;11.05;;;;;;;10.41;100.00;94845.44;10539619;27;20334;-69
2023/04/09 17:29:47;;;;;;;23.40;11.93;;;;;;;10.41;100.00;94850.00;10543926;27;20024;-69
2023/04/09 17:34:51;;;;;;;20.55;11.90;;;;;;;10.37;100.00;94855.09;10544860;27;20031;-69
2023/04/09 17:39:51;;;;;;;21.60;12.27;;;;;;;10.33;100.00;94864.75;10527621;27;20024;-69
2023/04/09 17:44:52;;;;;;;21.02;11.05;;;;;;;10.31;100.00;94871.44;10529579;27;20494;-69
2023/04/09 17:49:52;;;;;;;19.60;10.65;;;;;;;9.89;100.00;94876.78;10547608;27;20023;-69
2023/04/09 17:54:53;;;;;;;22.35;12.13;;;;;;;9.66;100.00;94878.03;10526119;28;20027;-69
2023/04/09 17:59:53;;;;;;;18.27;10.87;;;;;;;9.62;100.00;94882.31;10542184;27;20545;-76
2023/04/09 18:04:55;;;;;;;18.35;11.10;;;;;;;9.53;100.00;94883.88;10531412;27;20288;-74
2023/04/09 18:09:55;;;;;;;19.10;10.95;;;;;;;9.64;100.00;94885.56;10544960;27;20428;-74
2023/04/09 18:14:56;;;;;;;19.35;11.45;;;;;;;9.67;100.00;94893.09;10545291;27;20031;-72
2023/04/09 18:19:57;;;;;;;23.53;12.47;;;;;;;9.44;100.00;94898.91;10538305;28;20046;-73
2023/04/09 18:24:57;;;;;;;19.50;12.02;;;;;;;9.28;100.00;94909.56;10541008;27;20277;-73
2023/04/09 18:29:58;;;;;;;17.58;10.85;;;;;;;9.21;100.00;94906.31;10544960;28;20431;-74
2023/04/09 18:34:58;;;;;;;19.55;10.73;;;;;;;8.95;100.00;94913.38;10538978;28;20481;-74
2023/04/09 18:39:59;;;;;;;24.23;12.05;;;;;;;8.98;100.00;94915.53;10538422;28;20046;-74
2023/04/09 18:44:59;;;;;;;14.80;9.55;;;;;;;8.91;100.00;94925.69;10541544;28;20062;-75
2023/04/09 18:50:01;;;;;;;19.60;12.50;;;;;;;8.86;100.00;94916.53;10542657;28;20019;-73
2023/04/09 18:55:01;;;;;;;24.17;12.50;;;;;;;8.81;100.00;94924.53;10538745;28;20031;-71
2023/04/09 19:00:03;;;;;;;24.98;12.60;;;;;;;8.93;100.00;94921.69;10550566;28;20036;-72
2023/04/09 19:05:06;;;;;;;20.20;11.18;;;;;;;8.85;100.00;94927.53;10528491;28;20023;-71
2023/04/09 19:10:07;;;;;;;21.20;12.80;;;;;;;8.69;100.00;94922.06;10542926;28;20059;-71
2023/04/09 19:15:08;;;;;;;26.17;14.73;;;;;;;8.73;100.00;94925.00;10546816;28;20433;-72
2023/04/09 19:20:09;;;;;;;27.65;13.75;;;;;;;8.73;100.00;94930.38;10546023;27;20036;-72
2023/04/09 19:25:09;;;;;;;20.90;11.77;;;;;;;8.72;100.00;94924.22;10530985;27;20747;-73
2023/04/09 19:30:11;;;;;;;18.30;10.82;;;;;;;8.68;100.00;94922.31;10558732;27;20563;-70
2023/04/09 19:35:11;;;;;;;18.95;11.15;;;;;;;8.59;100.00;94921.94;10561187;27;20205;-71
2023/04/09 19:40:15;;;;;;;17.73;10.00;;;;;;;8.72;100.00;94915.34;10551602;27;20049;-70
2023/04/09 19:45:16;;;;;;;18.65;9.43;;;;;;;8.67;100.00;94924.16;10551245;27;20282;-70
2023/04/09 19:50:16;;;;;;;24.92;10.18;;;;;;;8.76;100.00;94921.00;10561399;27;20440;-71
2023/04/09 19:55:17;;;;;;;18.20;10.05;;;;;;;8.58;100.00;94922.22;10548560;27;20412;-71
2023/04/09 20:00:17;;;;;;;17.48;9.65;;;;;;;8.67;100.00;94915.31;10550163;27;20032;-71
2023/04/09 20:05:21;;;;;;;17.67;10.63;;;;;;;8.45;100.00;94918.09;10549493;27;20028;-70
2023/04/09 20:10:22;;;;;;;17.77;9.55;;;;;;;8.44;100.00;94927.16;10555237;27;20055;-70
2023/04/09 20:15:22;;;;;;;17.55;10.15;;;;;;;8.46;100.00;94925.06;10687426;22;20059;-72
2023/04/09 20:20:23;;;;;;;16.40;9.75;;;;;;;8.43;100.00;94917.50;10448156;28;20040;-75
2023/04/09 20:25:33;;;;;;;18.08;10.85;;;;;;;8.38;100.00;94913.72;10457673;28;20016;-73
2023/04/09 20:30:33;;;;;;;17.15;9.48;;;;;;;8.32;100.00;94908.59;10459040;28;20740;-73
2023/04/09 20:35:35;;;;;;;18.85;9.65;;;;;;;8.23;100.00;94910.91;10463725;28;20036;-73
2023/04/09 20:40:36;;;;;;;21.10;10.25;;;;;;;8.19;100.00;94910.59;10451177;28;20025;-71
2023/04/09 20:45:36;;;;;;;19.30;9.80;;;;;;;8.01;100.00;94913.66;10465093;28;20025;-72
2023/04/09 20:50:37;;;;;;;19.55;10.40;;;;;;;7.78;100.00;94910.19;10448604;28;20025;-71
2023/04/09 20:55:38;;;;;;;20.02;10.55;;;;;;;7.74;100.00;94918.97;10432041;28;20394;-71
2023/04/09 21:00:38;;;;;;;18.48;10.90;;;;;;;7.53;100.00;94930.25;10444386;28;20025;-71
2023/04/09 21:05:39;;;;;;;20.00;11.10;;;;;;;7.55;100.00;94930.00;10464245;28;20025;-72
2023/04/09 21:10:40;;;;;;;18.70;10.10;;;;;;;7.45;100.00;94921.81;10470145;28;20020;-71
2023/04/09 21:15:40;;;;;;;18.75;9.80;;;;;;;7.34;100.00;94932.41;10474901;28;20048;-72
2023/04/09 21:20:48;;;;;;;19.60;10.40;;;;;;;7.37;100.00;94920.41;10448201;28;20036;-72
2023/04/09 21:25:48;;;;;;;23.50;10.10;;;;;;;7.23;100.00;94927.16;10449847;28;20275;-72
2023/04/09 21:30:48;;;;;;;21.30;10.63;;;;;;;7.17;100.00;94936.97;10432369;28;20021;-72
2023/04/09 21:35:52;;;;;;;19.87;10.23;;;;;;;7.17;100.00;94923.59;10464474;28;20710;-72
2023/04/09 21:40:52;;;;;;;15.90;9.75;;;;;;;7.07;100.00;94926.16;10463541;28;20741;-71
2023/04/09 21:45:53;;;;;;;16.83;9.30;;;;;;;7.01;100.00;94923.41;10464485;28;20088;-72
2023/04/09 21:50:56;;;;;;;17.65;9.27;;;;;;;7.03;100.00;94925.81;10445802;28;20403;-71
2023/04/09 21:55:56;;;;;;;18.55;9.50;;;;;;;7.10;100.00;94925.66;10463919;28;20081;-71
2023/04/09 22:00:57;;;;;;;20.58;11.15;;;;;;;7.17;100.00;94926.28;10464045;28;20439;-71
2023/04/09 22:05:57;;;;;;;18.63;10.13;;;;;;;7.05;100.00;94913.03;10449164;28;20489;-71
2023/04/09 22:10:57;;;;;;;19.67;10.77;;;;;;;7.10;100.00;94929.16;10425774;28;20263;-71
2023/04/09 22:15:58;;;;;;;17.08;10.20;;;;;;;7.01;100.00;94928.75;10462998;28;20336;-71
2023/04/09 22:20:59;;;;;;;18.05;9.80;;;;;;;7.00;100.00;94920.97;10462674;28;20043;-71
2023/04/09 22:26:00;;;;;;;17.33;10.05;;;;;;;6.95;100.00;94923.56;10445508;28;20028;-72
2023/04/09 22:31:01;;;;;;;22.80;10.95;;;;;;;6.87;100.00;94921.34;10463019;28;20451;-71
2023/04/09 22:36:01;;;;;;;20.83;10.43;;;;;;;6.90;100.00;94915.50;10457475;28;20054;-71
2023/04/09 22:41:02;;;;;;;18.87;9.33;;;;;;;6.94;100.00;94921.97;10449683;28;20029;-73
2023/04/09 22:46:02;;;;;;;17.08;8.88;;;;;;;6.99;100.00;94917.50;10463156;28;20606;-70
2023/04/09 22:51:03;;;;;;;15.15;8.70;;;;;;;7.07;100.00;94916.25;10462926;28;20020;-70
2023/04/09 22:56:06;;;;;;;14.98;8.43;;;;;;;7.07;100.00;94918.94;10470077;28;20028;-72
2023/04/09 23:01:06;;;;;;;16.10;7.53;;;;;;;7.10;100.00;94920.31;10451803;28;20028;-71